Time;durP1;ratioP1;P1;durP2;ratioP2;P2;SDS_P1;SDS_P2;PMS_P1;PMS_P2;Temp;Humidity;BMP_temperature;BMP_pressure;BME280_temperature;BME280_humidity;BME280_pressure;Samples;Min_cycle;Max_cycle;Signal;HPM_P1;HPM_P2
2022/10/14 00:02:19;;;;;;;26.15;10.77;;;;;;;9.80;100.00;98682.97;4957921;28;20040;-81
2022/10/14 00:04:45;;;;;;;28.20;12.38;;;;;;;9.81;100.00;98663.59;4973498;28;20039;-82
2022/10/14 00:07:10;;;;;;;28.33;10.30;;;;;;;9.93;100.00;98675.13;4974254;28;20034;-81
2022/10/14 00:09:38;;;;;;;22.58;11.30;;;;;;;9.88;100.00;98661.00;4991734;28;20113;-82
2022/10/14 00:12:04;;;;;;;28.45;11.10;;;;;;;9.99;100.00;98681.38;4990457;28;20066;-82
2022/10/14 00:14:29;;;;;;;19.73;10.25;;;;;;;9.98;100.00;98682.38;4957976;28;20065;-82
2022/10/14 00:16:55;;;;;;;29.27;10.90;;;;;;;9.91;100.00;98663.22;4990940;28;20063;-82
2022/10/14 00:19:20;;;;;;;23.33;9.90;;;;;;;9.86;100.00;98656.75;4973680;28;20097;-82
2022/10/14 00:21:46;;;;;;;24.52;10.98;;;;;;;9.95;100.00;98665.25;4991545;28;20113;-81
2022/10/14 00:24:14;;;;;;;26.13;11.18;;;;;;;9.98;100.00;98650.91;4957922;28;21575;-82
2022/10/14 00:26:40;;;;;;;30.05;11.98;;;;;;;10.02;100.00;98660.00;4972590;28;20484;-82
2022/10/14 00:29:11;;;;;;;29.60;10.98;;;;;;;10.11;100.00;98660.59;4958147;28;20039;-81
2022/10/14 00:31:38;;;;;;;28.65;11.65;;;;;;;10.10;100.00;98649.31;4973444;28;20412;-81
2022/10/14 00:34:04;;;;;;;25.77;11.90;;;;;;;10.18;100.00;98656.19;4961991;28;20034;-81
2022/10/14 00:36:30;;;;;;;26.77;11.35;;;;;;;10.16;100.00;98647.72;4994772;28;20026;-81
2022/10/14 00:38:56;;;;;;;26.33;12.27;;;;;;;10.14;100.00;98636.63;4994665;28;20362;-81
2022/10/14 00:41:28;;;;;;;26.98;11.23;;;;;;;10.20;100.00;98650.72;4961096;28;20080;-81
2022/10/14 00:43:58;;;;;;;26.52;12.13;;;;;;;10.22;100.00;98648.69;4994209;28;20117;-81
2022/10/14 00:46:26;;;;;;;29.65;11.38;;;;;;;10.21;100.00;98636.59;4960397;28;20026;-81
2022/10/14 00:48:52;;;;;;;20.67;10.32;;;;;;;10.19;100.00;98639.44;4977217;28;20029;-81
2022/10/14 00:51:18;;;;;;;21.27;11.80;;;;;;;10.24;100.00;98649.34;4962125;28;20038;-81
2022/10/14 00:53:45;;;;;;;23.00;10.85;;;;;;;10.20;100.00;98645.47;4976588;28;20033;-82
2022/10/14 00:56:14;;;;;;;26.15;11.77;;;;;;;10.07;100.00;98615.63;4994464;28;20105;-81
2022/10/14 00:58:40;;;;;;;23.55;11.25;;;;;;;10.17;100.00;98624.91;4992997;28;20484;-82
2022/10/14 01:01:06;;;;;;;31.02;14.40;;;;;;;10.14;100.00;98626.91;4977115;28;20588;-81
2022/10/14 01:03:33;;;;;;;30.08;11.82;;;;;;;10.28;100.00;98640.03;4960623;28;20473;-81
2022/10/14 01:05:59;;;;;;;21.05;12.02;;;;;;;10.30;100.00;98632.78;4960484;28;20038;-82
2022/10/14 01:08:37;;;;;;;20.48;11.52;;;;;;;10.30;100.00;98624.91;4960903;28;20405;-81
2022/10/14 01:11:28;;;;;;;28.08;12.25;;;;;;;10.38;100.00;98637.00;4994027;28;20461;-81
2022/10/14 01:14:22;;;;;;;25.98;12.00;;;;;;;10.34;100.00;98628.72;4976896;28;20097;-81
2022/10/14 01:17:12;;;;;;;31.83;12.73;;;;;;;10.34;100.00;98626.09;4960727;28;20034;-81
2022/10/14 01:20:13;;;;;;;25.10;11.05;;;;;;;10.46;100.00;98625.53;4976422;28;20050;-82
2022/10/14 01:22:53;;;;;;;23.20;11.68;;;;;;;10.50;100.00;98621.50;4975971;28;20408;-82
2022/10/14 01:25:45;;;;;;;20.27;11.50;;;;;;;10.49;100.00;98617.25;4976056;28;20034;-81
2022/10/14 01:28:17;;;;;;;20.67;10.98;;;;;;;10.46;100.00;98607.16;4992490;28;20428;-81
2022/10/14 01:30:47;;;;;;;23.58;10.20;;;;;;;10.35;100.00;98598.88;4994240;28;20044;-81
2022/10/14 01:33:23;;;;;;;21.17;11.45;;;;;;;10.38;100.00;98601.06;4959645;28;20031;-81
2022/10/14 01:36:04;;;;;;;24.27;11.13;;;;;;;10.40;100.00;98608.75;4976459;28;20038;-80
2022/10/14 01:38:38;;;;;;;22.77;10.43;;;;;;;10.40;100.00;98596.47;4959886;28;20112;-81
2022/10/14 01:41:13;;;;;;;18.88;8.93;;;;;;;10.36;100.00;98592.59;4975869;28;20065;-81
2022/10/14 01:43:42;;;;;;;19.73;10.38;;;;;;;10.28;100.00;98577.09;4975154;28;20042;-81
2022/10/14 01:46:10;;;;;;;23.67;10.15;;;;;;;10.30;100.00;98575.06;4975042;28;20026;-81
2022/10/14 01:48:40;;;;;;;18.45;9.23;;;;;;;10.38;100.00;98584.53;4976323;28;20030;-82
2022/10/14 01:51:12;;;;;;;28.48;12.38;;;;;;;10.33;100.00;98561.53;4993778;28;20034;-81
2022/10/14 01:54:03;;;;;;;20.85;10.35;;;;;;;10.41;100.00;98579.69;4992321;28;20377;-81
2022/10/14 01:56:31;;;;;;;19.77;9.93;;;;;;;10.35;100.00;98569.22;4976247;28;20473;-81
2022/10/14 01:58:59;;;;;;;23.58;10.38;;;;;;;10.31;100.00;98565.38;4976171;28;20033;-82
2022/10/14 02:01:26;;;;;;;20.17;9.55;;;;;;;10.45;100.00;98569.63;4965492;28;20038;-81
2022/10/14 02:03:51;;;;;;;18.55;9.13;;;;;;;10.39;100.00;98554.66;4976538;28;20026;-81
2022/10/14 02:06:34;;;;;;;26.92;9.68;;;;;;;10.43;100.00;98561.16;4976052;28;20084;-81
2022/10/14 02:09:26;;;;;;;18.80;9.70;;;;;;;10.49;100.00;98559.53;4975750;28;20030;-80
2022/10/14 02:12:08;;;;;;;17.55;9.50;;;;;;;10.50;100.00;98561.94;4960144;28;20030;-80
2022/10/14 02:14:41;;;;;;;16.90;9.05;;;;;;;10.50;100.00;98556.69;4992542;28;20030;-81
2022/10/14 02:17:28;;;;;;;29.73;11.15;;;;;;;10.45;100.00;98539.97;4959876;28;20038;-81
2022/10/14 02:20:25;;;;;;;23.15;11.07;;;;;;;10.50;100.00;98529.66;4975356;28;20046;-81
2022/10/14 02:22:59;;;;;;;20.75;9.30;;;;;;;10.53;100.00;98524.81;4975393;28;20113;-81
2022/10/14 02:25:38;;;;;;;20.70;9.43;;;;;;;10.63;100.00;98521.75;4958163;28;20026;-80
2022/10/14 02:28:07;;;;;;;32.45;8.73;;;;;;;10.63;100.00;98503.38;4992999;28;20053;-82
2022/10/14 02:30:36;;;;;;;18.40;8.10;;;;;;;10.63;100.00;98487.63;4975472;28;20030;-81
2022/10/14 02:33:04;;;;;;;14.38;7.90;;;;;;;10.91;100.00;98498.81;4973812;28;20165;-81
2022/10/14 02:35:33;;;;;;;18.30;7.93;;;;;;;10.84;100.00;98469.97;4959539;28;20030;-81
2022/10/14 02:38:00;;;;;;;16.58;6.97;;;;;;;10.95;100.00;98477.16;4975173;28;20125;-82
2022/10/14 02:40:34;;;;;;;15.88;6.60;;;;;;;11.08;100.00;98486.75;4959125;28;20034;-82
2022/10/14 02:43:00;;;;;;;12.18;6.65;;;;;;;11.18;100.00;98482.88;4958920;28;20072;-82
2022/10/14 02:45:26;;;;;;;12.20;6.55;;;;;;;11.28;100.00;98483.22;4975337;28;20031;-81
2022/10/14 02:47:53;;;;;;;16.67;7.18;;;;;;;11.17;100.00;98460.25;4975225;28;20041;-82
2022/10/14 02:50:19;;;;;;;14.10;6.85;;;;;;;11.31;100.00;98466.22;4958896;28;20540;-83
2022/10/14 02:52:45;;;;;;;13.40;6.82;;;;;;;11.22;100.00;98463.88;4973772;28;20034;-82
2022/10/14 02:55:10;;;;;;;18.20;6.32;;;;;;;11.35;100.00;98462.16;4958636;28;20357;-82
2022/10/14 02:57:36;;;;;;;19.15;7.28;;;;;;;11.32;100.00;98458.16;4958948;28;20040;-82
2022/10/14 03:00:03;;;;;;;14.15;7.32;;;;;;;11.41;100.00;98471.81;4992334;28;20121;-82
2022/10/14 03:02:29;;;;;;;11.60;6.70;;;;;;;11.23;100.00;98454.97;4959108;28;20507;-83
2022/10/14 03:04:56;;;;;;;14.05;6.53;;;;;;;11.25;100.00;98460.00;4959641;28;20018;-82
2022/10/14 03:07:23;;;;;;;13.98;7.05;;;;;;;11.38;100.00;98465.16;4958770;28;20022;-81
2022/10/14 03:09:49;;;;;;;16.65;6.75;;;;;;;11.26;100.00;98459.78;4991960;28;20416;-82
2022/10/14 03:12:15;;;;;;;15.05;7.30;;;;;;;11.35;100.00;98462.16;4958719;28;20037;-82
2022/10/14 03:14:40;;;;;;;14.82;7.10;;;;;;;11.34;100.00;98440.34;4958484;28;20030;-82
2022/10/14 03:17:06;;;;;;;12.57;6.95;;;;;;;11.41;100.00;98466.56;4958669;28;20030;-81
2022/10/14 03:19:31;;;;;;;14.75;6.93;;;;;;;11.16;100.00;98422.66;4973921;28;20078;-82
2022/10/14 03:21:57;;;;;;;14.38;6.55;;;;;;;11.34;100.00;98450.03;4974784;28;20436;-83
2022/10/14 03:24:22;;;;;;;11.70;6.97;;;;;;;11.23;100.00;98436.59;4992120;28;20015;-82
2022/10/14 03:26:48;;;;;;;11.52;6.07;;;;;;;11.21;100.00;98430.75;4974347;28;20038;-83
2022/10/14 03:29:13;;;;;;;12.13;6.32;;;;;;;11.22;100.00;98445.47;4956913;28;20030;-82
2022/10/14 03:31:39;;;;;;;15.60;7.22;;;;;;;11.17;100.00;98440.03;4974367;28;20066;-81
2022/10/14 03:34:05;;;;;;;16.48;7.03;;;;;;;11.15;100.00;98436.81;4973859;28;20182;-81
2022/10/14 03:36:31;;;;;;;17.75;6.43;;;;;;;11.10;100.00;98436.66;4958725;28;20084;-82
2022/10/14 03:38:56;;;;;;;12.13;6.22;;;;;;;11.02;100.00;98431.69;4991828;28;20026;-82
2022/10/14 03:41:22;;;;;;;14.15;7.25;;;;;;;11.06;100.00;98422.34;4958428;28;20064;-82
2022/10/14 03:43:47;;;;;;;17.45;6.22;;;;;;;11.09;100.00;98427.97;4974727;28;20023;-82
2022/10/14 03:46:13;;;;;;;16.08;6.10;;;;;;;11.00;100.00;98416.13;4973847;28;20022;-82
2022/10/14 03:48:38;;;;;;;12.05;6.28;;;;;;;10.92;100.00;98411.94;4974236;28;20035;-81
2022/10/14 03:51:04;;;;;;;11.40;6.28;;;;;;;10.94;100.00;98419.59;4974282;28;20030;-82
2022/10/14 03:53:29;;;;;;;14.10;6.15;;;;;;;10.88;100.00;98423.88;4973696;28;20046;-82
2022/10/14 03:55:55;;;;;;;14.38;6.47;;;;;;;10.82;100.00;98416.84;4957788;28;20118;-81
2022/10/14 03:58:21;;;;;;;12.15;6.38;;;;;;;10.83;100.00;98421.09;4958106;28;20443;-82
2022/10/14 04:00:46;;;;;;;14.93;6.80;;;;;;;10.83;100.00;98408.75;4957888;28;20030;-82
2022/10/14 04:03:12;;;;;;;13.85;6.15;;;;;;;10.96;100.00;98423.63;4957707;28;20101;-82
2022/10/14 04:05:38;;;;;;;12.93;6.40;;;;;;;11.02;100.00;98421.19;4957259;28;20092;-81
2022/10/14 04:08:03;;;;;;;14.05;6.43;;;;;;;10.95;100.00;98406.25;4994506;28;20038;-82
2022/10/14 04:10:29;;;;;;;17.10;6.70;;;;;;;10.82;100.00;98387.97;4995563;28;20481;-81
2022/10/14 04:12:55;;;;;;;16.35;6.25;;;;;;;11.06;100.00;98417.88;4977700;28;20030;-80
2022/10/14 04:15:22;;;;;;;15.95;6.57;;;;;;;11.03;100.00;98410.44;4995635;28;20026;-81
2022/10/14 04:17:50;;;;;;;19.17;7.38;;;;;;;11.13;100.00;98423.91;4977524;28;20034;-81
2022/10/14 04:20:16;;;;;;;15.60;7.00;;;;;;;11.12;100.00;98418.88;4961197;28;20046;-81
2022/10/14 04:22:42;;;;;;;19.80;8.10;;;;;;;11.17;100.00;98426.91;4977990;28;20038;-81
2022/10/14 04:25:08;;;;;;;12.75;7.25;;;;;;;11.28;100.00;98418.34;4977136;28;20034;-80
2022/10/14 04:27:34;;;;;;;17.15;8.18;;;;;;;11.20;100.00;98396.78;4961731;28;20088;-81
2022/10/14 04:30:00;;;;;;;15.02;7.75;;;;;;;11.24;100.00;98404.03;4977949;28;20046;-81
2022/10/14 04:32:25;;;;;;;18.48;8.52;;;;;;;11.24;100.00;98406.66;4976803;28;20560;-81
2022/10/14 04:34:52;;;;;;;15.50;8.60;;;;;;;11.14;100.00;98395.81;4977561;28;20030;-81
2022/10/14 04:37:17;;;;;;;20.42;8.85;;;;;;;11.16;100.00;98396.41;4995250;28;20420;-81
2022/10/14 04:39:43;;;;;;;20.65;9.32;;;;;;;11.14;100.00;98403.69;4960996;28;20065;-81
2022/10/14 04:42:08;;;;;;;18.63;8.73;;;;;;;11.20;100.00;98389.72;4995015;28;20061;-81
2022/10/14 04:44:34;;;;;;;18.48;8.88;;;;;;;11.36;100.00;98409.41;4994888;28;20076;-81
2022/10/14 04:47:00;;;;;;;21.85;9.35;;;;;;;11.37;100.00;98404.94;4976732;28;20022;-82
2022/10/14 04:49:25;;;;;;;20.98;9.45;;;;;;;11.38;100.00;98406.53;4994569;28;20033;-82
2022/10/14 04:51:51;;;;;;;20.75;9.48;;;;;;;11.28;100.00;98389.44;4976770;28;20034;-81
2022/10/14 04:54:17;;;;;;;18.40;9.85;;;;;;;11.23;100.00;98391.91;4961704;28;20533;-82
2022/10/14 04:56:43;;;;;;;16.73;8.98;;;;;;;11.22;100.00;98400.00;4961042;28;20484;-81
2022/10/14 04:59:12;;;;;;;18.75;9.95;;;;;;;11.12;100.00;98387.34;4994322;28;20034;-81
2022/10/14 05:01:38;;;;;;;19.02;9.38;;;;;;;11.15;100.00;98389.53;4976743;28;20030;-81
2022/10/14 05:04:04;;;;;;;19.25;10.40;;;;;;;11.19;100.00;98388.09;4960836;28;20022;-81
2022/10/14 05:06:30;;;;;;;23.52;10.88;;;;;;;11.22;100.00;98385.06;4979083;28;20113;-81
2022/10/14 05:08:55;;;;;;;24.40;12.32;;;;;;;11.32;100.00;98383.75;4977136;28;20030;-82
2022/10/14 05:11:21;;;;;;;22.63;11.38;;;;;;;11.40;100.00;98384.28;4994528;28;20030;-81
2022/10/14 05:13:47;;;;;;;13.80;9.85;;;;;;;11.47;100.00;98380.78;4993881;28;20073;-80
2022/10/14 05:16:12;;;;;;;18.70;9.55;;;;;;;11.35;100.00;98367.56;4960314;28;20034;-81
2022/10/14 05:18:38;;;;;;;23.23;11.75;;;;;;;11.41;100.00;98362.25;4977177;28;20050;-81
2022/10/14 05:21:04;;;;;;;20.45;11.30;;;;;;;11.41;100.00;98369.34;4973257;28;20047;-82
2022/10/14 05:23:29;;;;;;;21.85;11.35;;;;;;;11.41;100.00;98356.19;4957454;28;20437;-82
2022/10/14 05:25:55;;;;;;;20.73;11.50;;;;;;;11.46;100.00;98353.72;4972615;28;20771;-81
2022/10/14 05:28:20;;;;;;;25.38;12.65;;;;;;;11.47;100.00;98344.00;4974380;28;20043;-81
2022/10/14 05:30:46;;;;;;;21.85;11.48;;;;;;;11.56;100.00;98354.00;4974088;28;20497;-81
2022/10/14 05:33:12;;;;;;;22.55;12.10;;;;;;;11.62;100.00;98351.56;4956796;28;20441;-81
2022/10/14 05:35:38;;;;;;;28.60;13.68;;;;;;;11.54;100.00;98340.28;4974831;28;20425;-81
2022/10/14 05:38:03;;;;;;;24.35;11.95;;;;;;;11.61;100.00;98339.44;4972677;28;20039;-81
2022/10/14 05:40:30;;;;;;;28.77;14.30;;;;;;;11.48;100.00;98317.50;4973280;28;20034;-81
2022/10/14 05:42:55;;;;;;;22.77;13.07;;;;;;;11.53;100.00;98316.88;4957310;28;20445;-82
2022/10/14 05:45:21;;;;;;;23.95;13.00;;;;;;;11.61;100.00;98332.34;4973584;28;20030;-81
2022/10/14 05:47:47;;;;;;;28.02;14.52;;;;;;;11.63;100.00;98329.50;4974079;28;20041;-81
2022/10/14 05:50:13;;;;;;;26.45;15.43;;;;;;;11.65;100.00;98336.13;4972802;28;20481;-81
2022/10/14 05:52:39;;;;;;;32.80;14.18;;;;;;;11.58;100.00;98311.75;4972452;28;20484;-81
2022/10/14 05:55:07;;;;;;;23.23;13.13;;;;;;;11.52;100.00;98316.03;4972664;28;20034;-81
2022/10/14 05:57:33;;;;;;;25.00;13.23;;;;;;;11.35;100.00;98300.06;4974613;28;20035;-82
2022/10/14 05:59:59;;;;;;;30.95;14.23;;;;;;;11.39;100.00;98303.03;4973228;28;20030;-82
2022/10/14 06:02:25;;;;;;;25.92;16.02;;;;;;;11.30;100.00;98299.91;4955170;28;20045;-82
2022/10/14 06:04:51;;;;;;;27.73;14.98;;;;;;;11.31;100.00;98304.16;4956239;28;20035;-81
2022/10/14 06:07:18;;;;;;;29.27;15.43;;;;;;;11.38;100.00;98309.31;4972678;28;20109;-81
2022/10/14 06:09:44;;;;;;;30.80;15.93;;;;;;;11.36;100.00;98295.59;4956849;28;20373;-81
2022/10/14 06:12:10;;;;;;;42.97;20.65;;;;;;;11.43;100.00;98296.34;4956128;28;20034;-82
2022/10/14 06:14:37;;;;;;;40.90;20.73;;;;;;;11.50;100.00;98297.06;4972545;28;20035;-82
2022/10/14 06:17:06;;;;;;;42.83;24.85;;;;;;;11.55;100.00;98299.84;4971410;28;20030;-81
2022/10/14 06:19:31;;;;;;;34.38;19.45;;;;;;;11.51;100.00;98293.41;4972015;28;20042;-80
2022/10/14 06:21:58;;;;;;;27.83;15.95;;;;;;;11.60;100.00;98308.91;4973828;28;20421;-80
2022/10/14 06:24:24;;;;;;;30.40;17.38;;;;;;;11.51;100.00;98292.63;4972618;28;20030;-81
2022/10/14 06:26:49;;;;;;;34.65;17.17;;;;;;;11.49;100.00;98290.22;4972240;28;20050;-81
2022/10/14 06:29:16;;;;;;;33.97;18.10;;;;;;;11.55;100.00;98297.22;4971484;28;20050;-81
2022/10/14 06:31:42;;;;;;;32.20;17.00;;;;;;;11.61;100.00;98300.00;4955401;28;20097;-81
2022/10/14 06:34:08;;;;;;;26.25;16.33;;;;;;;11.57;100.00;98303.03;4970415;28;20445;-81
2022/10/14 06:36:35;;;;;;;31.42;17.17;;;;;;;11.42;100.00;98300.00;4972023;28;20070;-82
2022/10/14 06:39:02;;;;;;;29.75;17.55;;;;;;;11.50;100.00;98293.66;4971858;28;21901;-82
2022/10/14 06:41:28;;;;;;;28.77;17.27;;;;;;;11.49;100.00;98295.47;4973343;28;20035;-85
2022/10/14 06:43:54;;;;;;;31.13;16.40;;;;;;;11.48;100.00;98293.84;4970790;28;21685;-83
2022/10/14 06:46:19;;;;;;;34.88;18.52;;;;;;;11.44;100.00;98276.94;4972276;28;20085;-83
2022/10/14 06:48:45;;;;;;;28.83;16.48;;;;;;;11.35;100.00;98263.28;4971220;28;20045;-82
2022/10/14 06:51:11;;;;;;;33.95;18.58;;;;;;;11.54;100.00;98281.69;4955601;28;20072;-84
2022/10/14 06:53:36;;;;;;;30.00;18.15;;;;;;;11.46;100.00;98289.84;4972273;28;20042;-82
2022/10/14 06:56:06;;;;;;;29.73;17.45;;;;;;;11.47;100.00;98279.13;4954515;28;20039;-83
2022/10/14 06:58:32;;;;;;;32.33;19.52;;;;;;;11.39;100.00;98295.16;4970782;28;20030;-83
2022/10/14 07:01:03;;;;;;;29.58;17.88;;;;;;;11.28;100.00;98279.09;4955550;28;20047;-84
2022/10/14 07:03:28;;;;;;;32.50;18.15;;;;;;;11.17;100.00;98282.44;4972567;28;20552;-83
2022/10/14 07:05:54;;;;;;;27.30;16.70;;;;;;;11.13;100.00;98291.78;4971384;28;20126;-81
2022/10/14 07:08:20;;;;;;;27.75;16.95;;;;;;;10.98;100.00;98271.91;4970689;28;20027;-80
2022/10/14 07:10:46;;;;;;;29.80;17.73;;;;;;;11.14;100.00;98296.00;4971026;28;20027;-80
2022/10/14 07:13:13;;;;;;;30.45;17.88;;;;;;;11.21;100.00;98288.88;4969849;28;20030;-81
2022/10/14 07:15:39;;;;;;;32.45;17.50;;;;;;;11.32;100.00;98297.06;4971330;28;20023;-81
2022/10/14 07:18:05;;;;;;;30.60;18.13;;;;;;;11.42;100.00;98300.00;4955649;28;20027;-82
2022/10/14 07:20:35;;;;;;;36.33;18.83;;;;;;;11.41;100.00;98298.38;4971116;28;20042;-83
2022/10/14 07:23:00;;;;;;;31.75;17.35;;;;;;;11.56;100.00;98301.44;4970448;28;20043;-81
2022/10/14 07:25:26;;;;;;;27.80;17.75;;;;;;;11.63;100.00;98300.59;4972342;28;20026;-82
2022/10/14 07:27:52;;;;;;;31.85;17.70;;;;;;;11.52;100.00;98262.69;4969937;28;20037;-82
2022/10/14 07:30:19;;;;;;;31.90;17.33;;;;;;;11.71;100.00;98293.22;4971298;28;20396;-84
2022/10/14 07:32:44;;;;;;;28.75;17.45;;;;;;;11.80;100.00;98293.72;4971979;28;20030;-83
2022/10/14 07:35:10;;;;;;;27.33;15.98;;;;;;;11.77;100.00;98273.09;4955495;28;20506;-84
2022/10/14 07:37:37;;;;;;;26.67;16.23;;;;;;;11.79;100.00;98265.81;4956509;28;20122;-87
2022/10/14 07:40:03;;;;;;;27.60;16.40;;;;;;;11.79;100.00;98270.25;4973742;28;20038;-86
2022/10/14 07:42:29;;;;;;;28.70;16.20;;;;;;;11.91;100.00;98283.47;4957155;28;20057;-86
2022/10/14 07:44:56;;;;;;;25.08;16.45;;;;;;;11.85;100.00;98293.03;4973333;28;20035;-87
2022/10/14 07:47:22;;;;;;;36.30;18.52;;;;;;;11.93;100.00;98300.63;4974216;28;20027;-87
2022/10/14 07:49:47;;;;;;;30.63;18.25;;;;;;;11.88;100.00;98283.91;4974523;28;20077;-89
2022/10/14 07:52:14;;;;;;;37.00;20.73;;;;;;;11.83;100.00;98280.13;4973133;28;20389;-87
2022/10/14 07:54:40;;;;;;;36.38;21.27;;;;;;;11.92;100.00;98298.22;4974257;28;20564;-86
2022/10/14 07:57:05;;;;;;;37.75;19.60;;;;;;;11.86;100.00;98284.13;4973330;28;20118;-87
2022/10/14 07:59:31;;;;;;;36.20;19.30;;;;;;;11.88;100.00;98300.47;4956800;28;20085;-87
2022/10/14 08:01:57;;;;;;;38.08;17.65;;;;;;;11.92;100.00;98321.88;4973443;28;20039;-86
2022/10/14 08:04:27;;;;;;;29.75;18.50;;;;;;;11.60;100.00;98290.50;4974353;28;20386;-89
2022/10/14 08:06:52;;;;;;;23.40;14.10;;;;;;;11.55;100.00;98305.09;4973925;28;20031;-86
2022/10/14 08:09:18;;;;;;;24.83;13.52;;;;;;;11.44;100.00;98297.94;4957017;28;20034;-87
2022/10/14 08:11:44;;;;;;;19.33;12.48;;;;;;;11.49;100.00;98316.50;4956709;28;20493;-87
2022/10/14 08:14:10;;;;;;;27.70;13.55;;;;;;;11.57;100.00;98337.22;4974033;28;20085;-85
2022/10/14 08:16:37;;;;;;;34.13;19.50;;;;;;;11.33;100.00;98317.88;4974212;28;20033;-86
2022/10/14 08:19:06;;;;;;;39.85;24.30;;;;;;;11.36;100.00;98319.25;4975133;28;20121;-86
2022/10/14 08:21:32;;;;;;;43.22;23.27;;;;;;;11.32;100.00;98310.19;4992664;28;20033;-87
2022/10/14 08:24:01;;;;;;;48.83;25.52;;;;;;;11.34;100.00;98321.28;4992681;28;20390;-86
2022/10/14 08:26:30;;;;;;;21.80;9.25;;;;;;;11.41;100.00;98308.91;4992578;28;20053;-86
2022/10/14 08:28:58;;;;;;;17.10;9.93;;;;;;;11.61;100.00;98313.16;4992062;28;20046;-86
2022/10/14 08:31:24;;;;;;;18.63;10.73;;;;;;;11.66;100.00;98302.78;4974450;28;20189;-86
2022/10/14 08:33:50;;;;;;;16.15;8.95;;;;;;;11.91;100.00;98317.66;4973652;28;20049;-88
2022/10/14 08:36:17;;;;;;;12.27;6.20;;;;;;;11.93;100.00;98303.25;4974103;28;20027;-87
2022/10/14 08:38:47;;;;;;;12.60;6.43;;;;;;;12.19;100.00;98335.53;4973306;28;20505;-86
2022/10/14 08:41:13;;;;;;;14.52;7.38;;;;;;;12.31;100.00;98343.47;4973296;28;20066;-86
2022/10/14 08:44:12;;;;;;;11.52;6.38;;;;;;;12.34;100.00;98302.75;4973468;28;20361;-85
2022/10/14 08:46:43;;;;;;;10.80;6.28;;;;;;;12.39;100.00;98314.22;4973662;28;20485;-86
2022/10/14 08:49:28;;;;;;;12.90;6.90;;;;;;;12.35;100.00;98307.00;4974102;28;20045;-87
2022/10/14 08:52:02;;;;;;;17.35;6.13;;;;;;;12.47;100.00;98301.78;4974086;28;20034;-86
2022/10/14 08:54:31;;;;;;;9.48;5.95;;;;;;;12.88;100.00;98323.81;4976162;28;20030;-86
2022/10/14 08:56:58;;;;;;;16.02;6.97;;;;;;;12.79;100.00;98312.03;4961038;28;20548;-87
2022/10/14 08:59:25;;;;;;;10.85;5.72;;;;;;;12.84;100.00;98309.50;4960414;28;20034;-84
2022/10/14 09:02:11;;;;;;;11.73;5.65;;;;;;;13.11;100.00;98332.78;4994387;28;20037;-85
2022/10/14 09:04:37;;;;;;;13.95;6.82;;;;;;;13.03;100.00;98297.03;4975536;28;20336;-86
2022/10/14 09:07:06;;;;;;;13.93;5.05;;;;;;;13.05;100.00;98281.00;4962424;28;20168;-83
2022/10/14 09:09:40;;;;;;;7.78;4.00;;;;;;;13.63;100.00;98320.75;4977460;28;20548;-82
2022/10/14 09:12:13;;;;;;;7.80;3.38;;;;;;;13.55;100.00;98293.69;4994487;28;20031;-83
2022/10/14 09:14:45;;;;;;;4.80;3.50;;;;;;;13.72;100.00;98287.69;4961297;28;20039;-84
2022/10/14 09:17:18;;;;;;;5.28;3.90;;;;;;;14.11;100.00;98303.75;4961234;28;20045;-87
2022/10/14 09:19:55;;;;;;;10.55;4.32;;;;;;;14.32;100.00;98309.41;4932500;28;1184656;-87
2022/10/14 09:22:22;;;;;;;7.05;3.45;;;;;;;14.68;100.00;98304.72;4978707;28;20445;-87
2022/10/14 09:24:48;;;;;;;8.65;3.63;;;;;;;14.81;100.00;98298.34;4962769;28;20145;-88
2022/10/14 09:27:20;;;;;;;8.90;3.22;;;;;;;15.43;100.00;98285.22;4978796;28;20120;-86
2022/10/14 09:29:59;;;;;;;6.60;3.05;;;;;;;15.22;100.00;98308.75;4962607;28;20121;-89
2022/10/14 09:32:27;;;;;;;4.97;2.85;;;;;;;15.42;100.00;98307.41;4962567;28;20038;-87
2022/10/14 09:34:55;;;;;;;7.68;3.33;;;;;;;16.03;100.00;98306.59;4978505;28;20034;-87
2022/10/14 09:37:35;;;;;;;5.22;3.00;;;;;;;16.59;100.00;98308.19;4991926;28;20528;-87
2022/10/14 09:40:13;;;;;;;5.07;2.60;;;;;;;16.21;100.00;98264.94;4978416;28;20488;-87
2022/10/14 09:43:06;;;;;;;8.65;3.45;;;;;;;16.27;100.00;98301.00;4978354;28;20069;-87
2022/10/14 09:45:52;;;;;;;3.90;3.10;;;;;;;15.69;100.00;98281.06;4977466;28;20365;-86
2022/10/14 09:48:36;;;;;;;6.88;2.65;;;;;;;16.19;100.00;98290.88;4978163;28;20041;-86
2022/10/14 09:51:22;;;;;;;2.67;2.28;;;;;;;15.85;100.00;98260.84;4985352;28;20069;-87
2022/10/14 09:53:56;;;;;;;7.03;2.67;;;;;;;16.12;100.00;98281.28;4962052;28;20030;-87
2022/10/14 09:56:36;;;;;;;7.13;2.45;;;;;;;16.15;100.00;98260.66;4968819;28;20030;-89
2022/10/14 09:59:03;;;;;;;3.63;2.53;;;;;;;16.02;100.00;98260.00;4978221;28;20433;-87
2022/10/14 10:01:39;;;;;;;4.53;2.20;;;;;;;15.71;100.00;98283.44;4995661;28;20113;-88
2022/10/14 10:04:23;;;;;;;4.22;2.53;;;;;;;15.95;100.00;98280.56;4948288;28;20031;-87
2022/10/14 10:06:53;;;;;;;;;;;;;;;15.51;100.00;98282.13;4977210;28;20504;-87
2022/10/14 10:09:19;;;;;;;8.18;2.40;;;;;;;15.53;100.00;98258.91;4978246;28;20292;-88
2022/10/14 10:11:45;;;;;;;3.65;2.47;;;;;;;15.50;100.00;98246.16;4995477;28;20484;-87
2022/10/14 10:14:29;;;;;;;5.65;2.90;;;;;;;15.91;100.00;98263.56;4962222;28;20485;-88
2022/10/14 10:17:07;;;;;;;5.88;2.15;;;;;;;15.44;100.00;98273.59;4966670;28;20026;-89
2022/10/14 10:19:35;;;;;;;2.92;2.10;;;;;;;15.83;100.00;98248.94;4961209;28;20046;-88
2022/10/14 10:22:28;;;;;;;9.30;2.50;;;;;;;15.88;100.00;98283.38;4961921;28;20057;-88
2022/10/14 10:24:59;;;;;;;4.88;2.60;;;;;;;16.22;100.00;98258.59;4976172;28;20436;-86
2022/10/14 10:27:27;;;;;;;6.22;2.20;;;;;;;15.91;100.00;98263.56;4976773;28;20392;-85
2022/10/14 10:29:55;;;;;;;3.13;1.90;;;;;;;15.90;100.00;98254.84;4975913;28;20547;-87
2022/10/14 10:32:59;;;;;;;7.05;2.67;;;;;;;16.01;100.00;98266.34;4975631;28;20036;-85
2022/10/14 10:35:46;;;;;;;8.95;2.63;;;;;;;15.60;100.00;98263.22;4919218;29;20044;-86
2022/10/14 10:38:44;;;;;;;10.95;2.08;;;;;;;15.77;100.00;98263.94;4919708;29;20423;-86
2022/10/14 10:41:19;;;;;;;4.05;1.90;;;;;;;15.19;100.00;98266.13;4979189;28;20400;-84
2022/10/14 10:44:06;;;;;;;3.88;2.15;;;;;;;15.68;100.00;98249.53;4956948;28;20041;-85
2022/10/14 10:46:53;;;;;;;5.68;1.98;;;;;;;16.11;100.00;98245.28;4992252;28;20038;-85
2022/10/14 10:49:33;;;;;;;7.68;2.08;;;;;;;16.25;100.00;98228.97;4975550;28;20034;-86
2022/10/14 10:52:10;;;;;;;6.45;2.20;;;;;;;16.25;100.00;98218.38;4975699;28;20129;-86
2022/10/14 10:55:01;;;;;;;5.97;2.10;;;;;;;16.21;100.00;98244.56;4976004;28;20022;-84
2022/10/14 10:57:45;;;;;;;6.85;2.22;;;;;;;16.45;100.00;98243.41;4959247;28;20034;-85
2022/10/14 11:00:19;;;;;;;4.90;2.55;;;;;;;16.41;100.00;98246.59;4974928;28;20105;-86
2022/10/14 11:03:19;;;;;;;6.88;2.53;;;;;;;15.89;100.00;98242.66;4975819;28;20108;-86
2022/10/14 11:12:01;;;;;;;4.82;1.90;;;;;;;16.34;100.00;98246.00;4974303;28;20384;-85
2022/10/14 11:12:34;;;;;;;4.15;2.42;;;;;;;16.16;100.00;98235.78;4975527;28;20392;-87
2022/10/14 11:15:35;;;;;;;6.55;2.65;;;;;;;16.19;100.00;98233.41;4993227;28;20034;-85
2022/10/14 11:18:08;;;;;;;7.30;2.20;;;;;;;16.07;100.00;98196.50;4973823;28;20054;-86
2022/10/14 11:20:52;;;;;;;6.93;2.30;;;;;;;16.07;100.00;98211.59;4971645;28;20050;-85
2022/10/14 11:23:35;;;;;;;6.40;2.33;;;;;;;16.02;100.00;98220.28;4954914;28;20061;-86
2022/10/14 11:26:35;;;;;;;6.97;3.13;;;;;;;16.29;100.00;98230.03;4971395;28;20131;-85
2022/10/14 11:29:06;;;;;;;7.85;3.20;;;;;;;16.55;100.00;98225.75;4973059;28;20034;-85
2022/10/14 11:31:50;;;;;;;6.30;3.30;;;;;;;16.18;100.00;98217.78;4972420;28;20040;-84
2022/10/14 11:34:47;;;;;;;4.47;3.30;;;;;;;16.45;100.00;98228.34;4955098;28;20098;-85